createdAt,value
2018-11-10T00:00:35.994Z,5.60
2018-11-10T00:03:04.270Z,5.60
2018-11-10T00:05:31.598Z,5.50
2018-11-10T00:07:59.074Z,5.50
2018-11-10T00:10:32.458Z,5.50
2018-11-10T00:12:59.857Z,5.50
2018-11-10T00:15:27.141Z,5.50
2018-11-10T00:17:54.426Z,5.50
2018-11-10T00:20:21.764Z,5.50
2018-11-10T00:22:49.103Z,5.50
2018-11-10T00:25:16.429Z,5.60
2018-11-10T00:27:44.762Z,5.60
2018-11-10T00:30:14.044Z,5.60
2018-11-10T00:32:41.909Z,5.60
2018-11-10T00:35:09.306Z,5.50
2018-11-10T00:37:36.834Z,5.60
2018-11-10T00:40:05.037Z,5.50
2018-11-10T00:42:32.954Z,5.50
2018-11-10T00:45:00.253Z,5.50
2018-11-10T00:47:27.544Z,5.50
2018-11-10T00:49:55.139Z,5.50
2018-11-10T00:52:22.443Z,5.50
2018-11-10T00:54:49.748Z,5.50
2018-11-10T00:57:17.091Z,5.50
2018-11-10T00:59:44.356Z,5.40
2018-11-10T01:02:11.906Z,5.50
2018-11-10T01:04:39.881Z,5.50
2018-11-10T01:07:07.202Z,5.50
2018-11-10T01:09:34.535Z,5.50
2018-11-10T01:12:02.173Z,5.50
2018-11-10T01:14:29.502Z,5.30
2018-11-10T01:16:56.861Z,5.40
2018-11-10T01:19:24.146Z,5.40
2018-11-10T01:22:14.713Z,5.40
2018-11-10T01:24:43.493Z,5.40
2018-11-10T01:27:10.899Z,5.30
2018-11-10T01:29:38.324Z,5.40
2018-11-10T01:32:05.835Z,5.40
2018-11-10T01:34:33.221Z,5.40
2018-11-10T01:37:00.522Z,5.40
2018-11-10T01:39:27.845Z,5.40
2018-11-10T01:41:55.170Z,5.30
2018-11-10T01:44:22.567Z,5.30
2018-11-10T01:46:49.934Z,5.20
2018-11-10T01:49:17.362Z,5.10
2018-11-10T01:51:44.663Z,5.20
2018-11-10T01:54:12.229Z,5.30
2018-11-10T01:56:39.620Z,5.30
2018-11-10T01:59:06.916Z,5.40
2018-11-10T02:01:34.193Z,5.40
2018-11-10T02:04:01.798Z,5.40
2018-11-10T02:06:29.111Z,5.40
2018-11-10T02:08:56.437Z,5.40
2018-11-10T02:11:23.888Z,5.50
2018-11-10T02:13:51.182Z,5.40
2018-11-10T02:16:18.543Z,5.30
2018-11-10T02:18:46.107Z,5.30
2018-11-10T02:21:13.423Z,5.40
2018-11-10T02:23:40.734Z,5.30
2018-11-10T02:26:08.021Z,5.40
2018-11-10T02:28:35.332Z,5.40
2018-11-10T02:31:02.646Z,5.40
2018-11-10T02:33:29.968Z,5.40
2018-11-10T02:35:57.249Z,5.30
2018-11-10T02:38:24.706Z,5.30
2018-11-10T02:40:52.363Z,5.30
2018-11-10T02:43:19.672Z,5.20
2018-11-10T02:45:46.994Z,5.30
2018-11-10T02:48:14.281Z,5.30
2018-11-10T02:50:41.597Z,5.30
2018-11-10T02:53:08.931Z,5.30
2018-11-10T02:55:36.276Z,5.20
2018-11-10T02:58:03.601Z,5.20
2018-11-10T03:00:30.955Z,5.20
2018-11-10T03:02:58.478Z,5.20
2018-11-10T03:08:07.782Z,5.20
2018-11-10T03:10:36.059Z,5.20
2018-11-10T03:13:03.504Z,5.20
2018-11-10T03:15:30.992Z,5.20
2018-11-10T03:17:58.297Z,5.30
2018-11-10T03:20:25.585Z,5.00
2018-11-10T03:22:52.923Z,5.00
2018-11-10T03:25:20.258Z,5.10
2018-11-10T03:27:47.559Z,5.00
2018-11-10T03:30:14.971Z,5.10
2018-11-10T03:32:42.297Z,5.10
2018-11-10T03:35:09.969Z,5.10
2018-11-10T03:37:37.594Z,5.10
2018-11-10T03:40:06.459Z,5.10
2018-11-10T03:42:33.741Z,5.10
2018-11-10T03:45:01.246Z,5.20
2018-11-10T03:47:28.562Z,5.10
2018-11-10T03:49:55.857Z,5.10
2018-11-10T03:52:23.185Z,5.10
2018-11-10T03:54:50.478Z,5.10
2018-11-10T03:57:17.803Z,5.10
2018-11-10T03:59:45.135Z,5.00
2018-11-10T04:02:12.444Z,5.20
2018-11-10T04:04:39.733Z,5.20
2018-11-10T04:07:07.090Z,5.20
2018-11-10T04:09:34.426Z,5.30
2018-11-10T04:12:01.807Z,5.20
2018-11-10T04:14:29.195Z,5.20
2018-11-10T04:16:56.489Z,5.20
2018-11-10T04:19:23.838Z,5.20
2018-11-10T04:21:51.238Z,5.20
2018-11-10T04:24:18.515Z,5.10
2018-11-10T04:26:45.842Z,5.10
2018-11-10T04:29:13.479Z,5.20
2018-11-10T04:31:40.775Z,5.20
2018-11-10T04:34:08.069Z,5.10
2018-11-10T04:36:35.391Z,5.20
2018-11-10T04:39:03.401Z,5.10
2018-11-10T04:41:30.718Z,5.10
2018-11-10T04:43:58.102Z,5.10
2018-11-10T04:46:25.405Z,5.10
2018-11-10T04:48:52.806Z,5.10
2018-11-10T04:51:20.151Z,5.20
2018-11-10T04:53:47.493Z,5.20
2018-11-10T04:56:14.802Z,5.20
2018-11-10T04:58:42.912Z,5.30
2018-11-10T05:01:10.524Z,5.30
2018-11-10T05:03:38.115Z,5.30
2018-11-10T05:06:05.445Z,5.30
2018-11-10T05:08:32.804Z,5.30
2018-11-10T05:11:00.137Z,5.20
2018-11-10T05:13:27.446Z,5.30
2018-11-10T05:15:54.783Z,5.40
2018-11-10T05:18:22.109Z,5.40
2018-11-10T05:20:49.569Z,5.30
2018-11-10T05:23:16.898Z,5.30
2018-11-10T05:25:44.243Z,5.40
2018-11-10T05:28:11.710Z,5.40
2018-11-10T05:30:39.038Z,5.40
2018-11-10T05:33:06.411Z,5.50
2018-11-10T05:35:33.763Z,5.40
2018-11-10T05:38:01.146Z,5.40
2018-11-10T05:40:28.454Z,5.40
2018-11-10T05:42:55.891Z,5.40
2018-11-10T05:45:23.492Z,5.40
2018-11-10T05:47:50.903Z,5.40
2018-11-10T05:50:18.276Z,5.40
2018-11-10T05:52:45.642Z,5.50
2018-11-10T05:55:12.966Z,5.50
2018-11-10T05:57:40.253Z,5.60
2018-11-10T06:00:09.101Z,5.50
2018-11-10T06:02:36.385Z,5.60
2018-11-10T06:05:04.103Z,5.60
2018-11-10T06:07:31.535Z,5.50
2018-11-10T06:09:58.871Z,5.40
2018-11-10T06:12:26.386Z,5.40
2018-11-10T06:14:53.700Z,5.40
2018-11-10T06:17:21.067Z,5.40
2018-11-10T06:19:48.604Z,5.30
2018-11-10T06:22:15.954Z,5.30
2018-11-10T06:24:43.274Z,5.40
2018-11-10T06:27:10.587Z,5.40
2018-11-10T06:29:38.065Z,5.50
2018-11-10T06:32:05.357Z,5.50
2018-11-10T06:34:33.301Z,5.50
2018-11-10T06:37:00.720Z,5.60
2018-11-10T06:39:28.177Z,5.60
2018-11-10T06:41:55.479Z,5.50
2018-11-10T06:44:22.957Z,5.70
2018-11-10T06:46:50.686Z,5.70
2018-11-10T06:49:18.020Z,5.70
2018-11-10T06:51:45.422Z,5.80
2018-11-10T06:54:13.113Z,5.80
2018-11-10T06:56:40.507Z,5.90
2018-11-10T06:59:08.959Z,5.90
2018-11-10T07:01:36.269Z,5.90
2018-11-10T07:04:03.660Z,5.90
2018-11-10T07:06:31.129Z,5.90
2018-11-10T07:08:58.525Z,5.90
2018-11-10T07:11:26.737Z,6.00
2018-11-10T07:13:54.136Z,5.90
2018-11-10T07:16:21.486Z,5.90
2018-11-10T07:18:58.083Z,6.00
2018-11-10T07:21:28.813Z,6.10
2018-11-10T07:23:56.114Z,6.10
2018-11-10T07:26:23.850Z,6.10
2018-11-10T07:28:51.220Z,6.20
2018-11-10T07:31:18.557Z,6.20
2018-11-10T07:33:46.181Z,6.30
2018-11-10T07:36:13.943Z,6.30
2018-11-10T07:38:41.307Z,6.20
2018-11-10T07:41:08.677Z,6.40
2018-11-10T07:43:36.158Z,6.50
2018-11-10T07:46:03.567Z,6.70
2018-11-10T07:48:31.253Z,6.90
2018-11-10T07:50:58.586Z,7.10
2018-11-10T07:53:25.932Z,6.90
2018-11-10T07:55:53.445Z,7.10
2018-11-10T07:58:20.755Z,7.30
2018-11-10T08:00:48.062Z,7.20
2018-11-10T08:03:15.550Z,7.30
2018-11-10T08:05:42.903Z,7.40
2018-11-10T08:08:10.260Z,7.40
2018-11-10T08:10:41.679Z,7.50
2018-11-10T08:13:09.027Z,7.70
2018-11-10T08:15:36.489Z,7.80
2018-11-10T08:18:04.106Z,7.80
2018-11-10T08:20:31.441Z,8.00
2018-11-10T08:22:58.762Z,8.10
2018-11-10T08:25:26.065Z,8.10
2018-11-10T08:27:53.398Z,8.10
2018-11-10T08:30:20.779Z,8.50
2018-11-10T08:32:48.105Z,8.60
2018-11-10T08:35:15.394Z,8.40
2018-11-10T08:37:42.798Z,8.90
2018-11-10T08:40:14.730Z,9.30
2018-11-10T08:42:42.055Z,9.30
2018-11-10T08:45:10.972Z,9.20
2018-11-10T08:47:38.502Z,9.10
2018-11-10T08:50:06.689Z,9.40
2018-11-10T08:52:34.075Z,9.50
2018-11-10T08:55:01.473Z,9.60
2018-11-10T08:57:28.874Z,10.10
2018-11-10T08:59:56.238Z,10.20
2018-11-10T09:02:23.622Z,10.10
2018-11-10T09:04:50.918Z,9.90
2018-11-10T09:07:18.239Z,10.10
2018-11-10T09:09:45.632Z,10.00
2018-11-10T09:12:12.938Z,10.20
2018-11-10T09:14:40.314Z,10.20
2018-11-10T09:17:07.762Z,10.20
2018-11-10T09:19:35.169Z,10.40
2018-11-10T09:22:02.478Z,10.30
2018-11-10T09:24:29.857Z,10.50
2018-11-10T09:26:57.355Z,10.50
2018-11-10T09:29:24.917Z,10.40
2018-11-10T09:31:52.259Z,10.40
2018-11-10T09:34:19.686Z,10.90
2018-11-10T09:36:47.193Z,11.50
2018-11-10T09:39:14.586Z,11.70
2018-11-10T09:41:41.930Z,12.30
2018-11-10T09:44:09.330Z,13.40
2018-11-10T09:46:36.741Z,13.50
2018-11-10T09:49:05.202Z,14.30
2018-11-10T09:51:32.577Z,15.30
2018-11-10T09:54:00.039Z,15.70
2018-11-10T09:56:27.882Z,15.60
2018-11-10T09:58:55.274Z,15.70
2018-11-10T10:01:22.855Z,16.60
2018-11-10T10:03:50.106Z,17.30
2018-11-10T10:06:21.227Z,18.80
2018-11-10T10:08:49.179Z,18.90
2018-11-10T10:11:16.623Z,18.80
2018-11-10T10:13:44.273Z,18.30
2018-11-10T10:16:11.880Z,17.20
2018-11-10T10:18:39.090Z,16.90
2018-11-10T10:21:06.438Z,16.70
2018-11-10T10:23:33.796Z,15.70
2018-11-10T10:26:01.102Z,15.50
2018-11-10T10:28:28.576Z,15.70
2018-11-10T10:30:55.919Z,16.00
2018-11-10T10:33:23.326Z,15.80
2018-11-10T10:35:54.034Z,15.70
2018-11-10T10:38:21.455Z,15.10
2018-11-10T10:40:48.997Z,14.60
2018-11-10T10:43:16.379Z,14.90
2018-11-10T10:45:43.686Z,14.90
2018-11-10T10:48:11.011Z,14.80
2018-11-10T10:50:38.381Z,14.80
2018-11-10T10:53:05.686Z,16.10
2018-11-10T10:55:34.263Z,16.80
2018-11-10T10:58:08.118Z,16.50
2018-11-10T11:00:41.434Z,16.20
2018-11-10T11:03:15.396Z,17.20
2018-11-10T11:05:48.349Z,18.40
2018-11-10T11:08:15.747Z,21.60
2018-11-10T11:10:44.875Z,22.90
2018-11-10T11:13:17.929Z,24.70
2018-11-10T11:15:48.204Z,23.80
2018-11-10T11:18:16.857Z,24.40
2018-11-10T11:20:44.603Z,25.40
2018-11-10T11:49:53.223Z,22.40
2018-11-10T11:52:20.782Z,24.10
2018-11-10T11:54:50.456Z,28.10
2018-11-10T11:57:22.260Z,31.20
2018-11-10T11:59:52.266Z,33.00
2018-11-10T12:02:27.477Z,34.70
2018-11-10T12:04:55.558Z,35.60
2018-11-10T12:07:22.905Z,36.50
2018-11-10T12:09:50.273Z,36.60
2018-11-10T12:12:18.855Z,37.20
2018-11-10T12:14:47.634Z,38.10
2018-11-10T12:17:18.512Z,38.80
2018-11-10T12:19:47.639Z,39.30
2018-11-10T12:22:15.461Z,39.50
2018-11-10T12:24:43.562Z,39.70
2018-11-10T12:27:10.942Z,40.10
2018-11-10T12:29:50.138Z,40.20
2018-11-10T12:32:19.641Z,40.30
2018-11-10T12:34:48.564Z,40.10
2018-11-10T12:37:23.075Z,40.20
2018-11-10T12:39:50.510Z,40.10
2018-11-10T12:42:17.910Z,39.90
2018-11-10T12:44:45.498Z,39.90
2018-11-10T12:47:12.830Z,39.90
2018-11-10T12:49:40.310Z,39.70
2018-11-10T12:52:07.670Z,39.70
2018-11-10T12:54:35.139Z,39.60
2018-11-10T12:57:02.774Z,39.50
2018-11-10T12:59:30.388Z,39.20
2018-11-10T13:01:57.902Z,39.00
2018-11-10T13:07:04.602Z,38.40
2018-11-10T13:09:32.167Z,38.00
2018-11-10T13:11:59.937Z,37.80
2018-11-10T13:14:27.443Z,37.50
2018-11-10T13:16:55.314Z,37.10
2018-11-10T13:19:22.773Z,36.60
2018-11-10T13:21:50.235Z,36.20
2018-11-10T13:24:17.676Z,35.80
2018-11-10T13:29:28.386Z,35.20
2018-11-10T13:31:55.774Z,35.00
2018-11-10T13:34:23.114Z,34.70
2018-11-10T13:36:50.525Z,34.40
2018-11-10T13:39:18.231Z,34.20
2018-11-10T13:41:46.245Z,33.50
2018-11-10T13:44:13.760Z,32.90
2018-11-10T13:46:41.023Z,32.50
2018-11-10T13:49:08.374Z,32.30
2018-11-10T13:51:35.847Z,32.00
2018-11-10T13:54:03.163Z,31.80
2018-11-10T13:56:30.486Z,31.50
2018-11-10T13:58:57.891Z,31.30
2018-11-10T14:01:25.267Z,31.00
2018-11-10T14:03:52.623Z,30.60
2018-11-10T14:06:20.226Z,30.00
2018-11-10T14:08:47.589Z,29.30
2018-11-10T14:11:14.928Z,28.80
2018-11-10T14:13:42.301Z,28.30
2018-11-10T14:16:09.650Z,27.80
2018-11-10T14:18:36.984Z,27.20
2018-11-10T14:21:04.438Z,26.30
2018-11-10T14:23:31.863Z,25.70
2018-11-10T14:25:59.326Z,25.00
2018-11-10T14:28:26.629Z,23.90
2018-11-10T14:30:53.987Z,22.80
2018-11-10T14:33:21.405Z,21.80
2018-11-10T14:35:48.810Z,20.80
2018-11-10T14:38:16.149Z,20.00
2018-11-10T14:40:43.468Z,19.30
2018-11-10T14:43:10.994Z,18.60
2018-11-10T14:45:38.530Z,18.10
2018-11-10T14:48:05.897Z,17.50
2018-11-10T14:50:33.293Z,17.10
2018-11-10T14:53:00.878Z,16.70
2018-11-10T14:55:28.045Z,16.20
2018-11-10T14:57:55.408Z,15.90
2018-11-10T15:00:25.810Z,15.50
2018-11-10T15:02:53.187Z,15.10
2018-11-10T15:05:20.592Z,14.80
2018-11-10T15:07:48.045Z,14.50
2018-11-10T15:10:16.566Z,14.30
2018-11-10T15:12:44.572Z,13.90
2018-11-10T15:15:13.010Z,13.80
2018-11-10T15:17:41.061Z,13.50
2018-11-10T15:20:10.083Z,13.10
2018-11-10T15:22:37.769Z,13.10
2018-11-10T15:25:09.791Z,12.90
2018-11-10T15:27:37.887Z,12.70
2018-11-10T15:30:08.501Z,12.50
2018-11-10T15:32:35.862Z,12.40
2018-11-10T15:35:04.762Z,12.20
2018-11-10T15:37:32.212Z,12.00
2018-11-10T15:40:01.535Z,11.90
2018-11-10T15:42:29.958Z,11.80
2018-11-10T15:44:58.501Z,11.70
2018-11-10T15:47:28.934Z,11.60
2018-11-10T15:49:57.641Z,11.50
2018-11-10T15:52:27.031Z,11.30
2018-11-10T15:54:54.654Z,11.20
2018-11-10T15:57:22.025Z,11.10
2018-11-10T15:59:51.705Z,11.00
2018-11-10T16:02:20.966Z,10.90
2018-11-10T16:04:48.305Z,10.70
2018-11-10T16:07:15.817Z,10.70
2018-11-10T16:09:44.312Z,10.50
2018-11-10T16:12:11.923Z,10.40
2018-11-10T16:14:40.301Z,10.30
2018-11-10T16:17:07.794Z,10.20
2018-11-10T16:19:35.848Z,10.10
2018-11-10T16:22:04.279Z,9.90
2018-11-10T16:24:31.820Z,9.90
2018-11-10T16:26:59.394Z,9.80
2018-11-10T16:29:27.420Z,9.60
2018-11-10T16:31:54.745Z,9.60
2018-11-10T16:34:22.141Z,9.40
2018-11-10T16:36:49.553Z,9.30
2018-11-10T16:39:17.015Z,9.20
2018-11-10T16:41:44.420Z,9.00
2018-11-10T16:44:11.974Z,8.90
2018-11-10T16:46:39.281Z,8.90
2018-11-10T16:49:06.690Z,8.70
2018-11-10T16:51:34.273Z,8.60
2018-11-10T16:54:02.242Z,8.50
2018-11-10T16:56:30.933Z,8.40
2018-11-10T16:59:01.635Z,8.30
2018-11-10T17:01:29.253Z,8.20
2018-11-10T17:03:57.672Z,8.10
2018-11-10T17:06:28.402Z,8.00
2018-11-10T17:08:56.093Z,7.90
2018-11-10T17:11:23.447Z,7.80
2018-11-10T17:13:50.854Z,7.70
2018-11-10T17:16:18.202Z,7.60
2018-11-10T17:18:46.002Z,7.60
2018-11-10T17:21:13.557Z,7.50
2018-11-10T17:23:40.983Z,7.40
2018-11-10T17:26:08.700Z,7.30
2018-11-10T17:28:36.231Z,7.20
2018-11-10T17:31:04.099Z,7.30
2018-11-10T17:33:31.918Z,7.20
2018-11-10T17:35:59.270Z,7.10
2018-11-10T17:38:26.803Z,7.00
2018-11-10T17:41:03.381Z,6.90
2018-11-10T17:43:31.846Z,6.80
2018-11-10T17:46:01.139Z,6.60
2018-11-10T17:48:28.786Z,6.70
2018-11-10T17:50:59.957Z,6.60
2018-11-10T17:53:27.270Z,6.60
2018-11-10T17:55:54.609Z,6.50
2018-11-10T18:01:03.846Z,6.40
2018-11-10T18:03:31.556Z,6.40
2018-11-10T18:05:58.989Z,6.30
2018-11-10T18:08:26.460Z,6.30
2018-11-10T18:10:54.079Z,6.20
2018-11-10T18:13:22.078Z,6.20
2018-11-10T18:15:49.605Z,6.10
2018-11-10T18:18:17.495Z,6.00
2018-11-10T18:20:44.922Z,6.00
2018-11-10T18:23:12.917Z,5.90
2018-11-10T18:25:40.383Z,5.80
2018-11-10T18:28:07.910Z,5.80
2018-11-10T18:30:35.286Z,5.70
2018-11-10T18:33:02.994Z,5.60
2018-11-10T18:35:30.502Z,5.60
2018-11-10T18:37:57.911Z,5.50
2018-11-10T18:40:25.310Z,5.50
2018-11-10T18:42:52.758Z,5.40
2018-11-10T18:45:20.234Z,5.40
2018-11-10T18:47:47.705Z,5.40
2018-11-10T18:50:16.081Z,5.40
2018-11-10T18:52:44.222Z,5.30
2018-11-10T18:55:13.105Z,5.30
2018-11-10T18:57:41.348Z,5.20
2018-11-10T19:00:11.090Z,5.20
2018-11-10T19:02:39.325Z,5.10
2018-11-10T19:05:08.985Z,5.00
2018-11-10T19:07:36.875Z,5.00
2018-11-10T19:10:05.951Z,5.00
2018-11-10T19:12:33.973Z,4.90
2018-11-10T19:15:02.147Z,4.80
2018-11-10T19:17:29.714Z,5.00
2018-11-10T19:19:57.330Z,4.70
2018-11-10T19:22:24.760Z,4.80
2018-11-10T19:24:52.623Z,4.70
2018-11-10T19:27:20.666Z,4.70
2018-11-10T19:29:48.190Z,4.70
2018-11-10T19:32:19.624Z,4.80
2018-11-10T19:34:49.679Z,4.80
2018-11-10T19:37:21.196Z,4.80
2018-11-10T19:39:48.986Z,4.80
2018-11-10T19:42:16.322Z,4.90
2018-11-10T19:44:44.669Z,4.80
2018-11-10T19:47:12.346Z,4.80
2018-11-10T19:49:39.754Z,4.80
2018-11-10T19:52:07.443Z,4.80
2018-11-10T19:54:38.306Z,4.70
2018-11-10T19:57:05.601Z,4.60
2018-11-10T19:59:33.146Z,4.80
2018-11-10T20:02:00.562Z,4.60
2018-11-10T20:04:27.965Z,4.50
2018-11-10T20:07:04.228Z,4.50
2018-11-10T20:09:31.638Z,4.40
2018-11-10T20:11:59.100Z,4.40
2018-11-10T20:14:26.532Z,4.30
2018-11-10T20:16:53.918Z,4.30
2018-11-10T20:19:21.259Z,4.30
2018-11-10T20:21:48.639Z,4.30
2018-11-10T20:24:16.025Z,4.20
2018-11-10T20:26:43.371Z,4.20
2018-11-10T20:29:10.692Z,4.20
2018-11-10T20:31:38.356Z,4.10
2018-11-10T20:34:05.709Z,4.10
2018-11-10T20:36:33.090Z,4.00
2018-11-10T20:39:00.499Z,4.00
2018-11-10T20:41:34.535Z,4.00
2018-11-10T20:44:03.434Z,4.00
2018-11-10T20:46:30.871Z,4.00
2018-11-10T20:48:58.202Z,4.00
2018-11-10T20:51:25.561Z,3.90
2018-11-10T20:53:53.159Z,3.90
2018-11-10T20:56:20.565Z,3.90
2018-11-10T20:58:47.921Z,3.80
2018-11-10T21:01:15.338Z,3.90
2018-11-10T21:03:42.728Z,3.80
2018-11-10T21:06:10.200Z,3.80
2018-11-10T21:08:37.824Z,3.80
2018-11-10T21:11:05.295Z,3.80
2018-11-10T21:13:32.783Z,3.70
2018-11-10T21:16:00.179Z,3.70
2018-11-10T21:18:27.571Z,3.60
2018-11-10T21:20:55.063Z,3.70
2018-11-10T21:23:22.811Z,3.70
2018-11-10T21:25:50.264Z,3.80
2018-11-10T21:28:17.609Z,3.80
2018-11-10T21:30:45.092Z,3.80
2018-11-10T21:33:12.513Z,3.80
2018-11-10T21:35:40.025Z,3.80
2018-11-10T21:38:07.475Z,3.80
2018-11-10T21:40:34.875Z,3.80
2018-11-10T21:43:02.308Z,3.80
2018-11-10T21:45:29.759Z,3.80
2018-11-10T21:47:57.217Z,3.70
2018-11-10T21:50:24.572Z,3.70
2018-11-10T21:52:52.205Z,3.70
2018-11-10T21:55:19.834Z,3.80
2018-11-10T21:57:47.759Z,3.70
2018-11-10T22:00:16.589Z,3.70
2018-11-10T22:02:44.467Z,3.70
2018-11-10T22:05:12.081Z,3.60
2018-11-10T22:07:39.614Z,3.60
2018-11-10T22:10:09.720Z,3.60
2018-11-10T22:12:37.208Z,3.50
2018-11-10T22:15:06.410Z,3.50
2018-11-10T22:17:33.822Z,3.50
2018-11-10T22:20:01.191Z,3.50
2018-11-10T22:22:28.710Z,3.40
2018-11-10T22:24:56.041Z,3.40
2018-11-10T22:27:24.827Z,3.40
2018-11-10T22:29:52.215Z,3.40
2018-11-10T22:32:19.583Z,3.40
2018-11-10T22:34:46.958Z,3.40
2018-11-10T22:37:14.303Z,3.50
2018-11-10T22:39:41.947Z,3.50
2018-11-10T22:42:09.298Z,3.40
2018-11-10T22:44:36.646Z,3.30
2018-11-10T22:47:04.442Z,3.40
2018-11-10T22:49:35.749Z,3.40
2018-11-10T22:52:03.216Z,3.30
2018-11-10T22:54:30.639Z,3.30
2018-11-10T22:56:58.101Z,3.30
2018-11-10T22:59:25.402Z,3.30
2018-11-10T23:01:52.754Z,3.30
2018-11-10T23:04:20.524Z,3.30
2018-11-10T23:06:47.880Z,3.30
2018-11-10T23:09:15.248Z,3.20
2018-11-10T23:11:42.735Z,3.30
2018-11-10T23:14:10.090Z,3.30
2018-11-10T23:16:37.690Z,3.30
2018-11-10T23:19:05.270Z,3.30
2018-11-10T23:21:32.780Z,3.20
2018-11-10T23:24:00.164Z,3.20
2018-11-10T23:26:27.745Z,3.20
2018-11-10T23:28:55.216Z,3.20
2018-11-10T23:31:22.620Z,3.10
2018-11-10T23:33:49.976Z,3.10
2018-11-10T23:36:17.335Z,3.10
2018-11-10T23:38:44.715Z,3.20
2018-11-10T23:41:12.134Z,3.20
2018-11-10T23:43:39.488Z,3.20
2018-11-10T23:46:06.854Z,3.20
2018-11-10T23:48:34.234Z,3.20
2018-11-10T23:51:02.825Z,3.20
2018-11-10T23:53:36.653Z,3.20
2018-11-10T23:56:04.079Z,3.30
2018-11-10T23:58:31.406Z,3.30
